createdAt,value
2022-12-27T00:01:33.726Z,13.03
2022-12-27T00:04:01.315Z,13.00
2022-12-27T00:06:28.816Z,13.04
2022-12-27T00:08:56.126Z,13.24
2022-12-27T00:11:24.508Z,13.44
2022-12-27T00:13:51.695Z,13.55
2022-12-27T00:16:19.585Z,13.43
2022-12-27T00:18:47.399Z,13.53
2022-12-27T00:21:14.626Z,13.75
2022-12-27T00:23:43.364Z,13.55
2022-12-27T00:26:15.151Z,13.73
2022-12-27T00:28:42.311Z,13.67
2022-12-27T00:31:09.705Z,13.70
2022-12-27T00:33:37.733Z,13.34
2022-12-27T00:36:06.291Z,13.56
2022-12-27T00:38:33.529Z,13.30
2022-12-27T00:41:01.217Z,13.12
2022-12-27T00:43:28.753Z,12.83
2022-12-27T00:45:56.016Z,13.07
2022-12-27T00:48:23.475Z,13.08
2022-12-27T00:50:50.735Z,12.97
2022-12-27T00:53:18.029Z,13.41
2022-12-27T00:55:45.529Z,13.61
2022-12-27T00:58:13.164Z,13.44
2022-12-27T01:00:40.361Z,13.71
2022-12-27T01:03:07.845Z,13.28
2022-12-27T01:05:37.840Z,13.48
2022-12-27T01:08:05.244Z,13.28
2022-12-27T01:10:32.833Z,13.45
2022-12-27T01:13:03.610Z,13.52
2022-12-27T01:15:30.801Z,13.75
2022-12-27T01:17:58.229Z,13.54
2022-12-27T01:20:25.443Z,13.66
2022-12-27T01:22:54.034Z,13.42
2022-12-27T01:25:21.566Z,13.64
2022-12-27T01:27:48.757Z,13.41
2022-12-27T01:30:15.961Z,12.64
2022-12-27T01:32:43.533Z,13.26
2022-12-27T01:35:10.725Z,13.25
2022-12-27T01:37:37.885Z,12.78
2022-12-27T01:40:05.632Z,12.66
2022-12-27T01:42:51.643Z,13.13
2022-12-27T01:45:19.003Z,13.49
2022-12-27T01:47:48.969Z,13.38
2022-12-27T01:50:18.682Z,12.74
2022-12-27T01:52:48.371Z,12.97
2022-12-27T01:55:18.503Z,12.96
2022-12-27T01:57:45.985Z,13.30
2022-12-27T02:00:13.367Z,13.16
2022-12-27T02:02:40.955Z,12.86
2022-12-27T02:05:08.704Z,12.62
2022-12-27T02:07:59.339Z,12.76
2022-12-27T02:10:26.840Z,13.15
2022-12-27T02:12:54.008Z,12.90
2022-12-27T02:15:21.360Z,13.30
2022-12-27T02:17:48.790Z,13.52
2022-12-27T02:20:16.897Z,13.58
2022-12-27T02:23:08.964Z,13.39
2022-12-27T02:25:36.710Z,13.45
2022-12-27T02:28:12.784Z,13.32
2022-12-27T02:30:40.236Z,13.19
2022-12-27T02:33:08.986Z,13.09
2022-12-27T02:35:39.903Z,13.32
2022-12-27T02:38:20.726Z,13.51
2022-12-27T02:41:06.714Z,13.64
2022-12-27T02:43:52.801Z,13.63
2022-12-27T02:46:42.570Z,13.96
2022-12-27T02:49:47.809Z,14.12
2022-12-27T02:52:48.682Z,14.10
2022-12-27T02:55:16.106Z,14.29
2022-12-27T02:57:52.171Z,14.39
2022-12-27T03:00:39.071Z,14.31
2022-12-27T03:03:21.761Z,14.42
2022-12-27T03:06:26.716Z,14.07
2022-12-27T03:09:12.670Z,14.14
2022-12-27T03:12:08.094Z,14.19
2022-12-27T03:14:54.740Z,13.93
2022-12-27T03:17:37.134Z,14.02
2022-12-27T03:20:23.626Z,13.91
2022-12-27T03:23:09.930Z,13.65
2022-12-27T03:25:37.117Z,13.79
2022-12-27T03:28:24.995Z,13.54
2022-12-27T03:31:12.844Z,13.59
2022-12-27T03:33:40.571Z,13.94
2022-12-27T03:36:31.070Z,14.24
2022-12-27T03:39:03.745Z,14.30
2022-12-27T03:42:04.774Z,13.92
2022-12-27T03:44:32.250Z,14.29
2022-12-27T03:47:00.335Z,14.42
2022-12-27T03:49:31.258Z,14.52
2022-12-27T03:52:17.409Z,14.52
2022-12-27T03:54:45.442Z,14.52
2022-12-27T03:57:14.266Z,14.30
2022-12-27T03:59:41.360Z,14.20
2022-12-27T04:02:08.798Z,14.04
2022-12-27T04:04:36.365Z,13.97
2022-12-27T04:07:03.930Z,14.07
2022-12-27T04:09:50.039Z,13.98
2022-12-27T04:12:36.278Z,13.89
2022-12-27T04:15:22.225Z,13.95
2022-12-27T04:18:08.498Z,14.02
2022-12-27T04:20:55.002Z,13.92
2022-12-27T04:23:41.150Z,13.94
2022-12-27T04:26:26.899Z,13.81
2022-12-27T04:29:13.068Z,13.81
2022-12-27T04:31:58.918Z,13.73
2022-12-27T04:34:44.878Z,13.75
2022-12-27T04:37:16.416Z,13.45
2022-12-27T04:40:06.905Z,13.28
2022-12-27T04:42:52.563Z,13.50
2022-12-27T04:45:38.717Z,13.24
2022-12-27T04:48:25.178Z,12.95
2022-12-27T04:51:11.498Z,13.26
2022-12-27T04:53:57.414Z,13.39
2022-12-27T04:56:24.858Z,13.07
2022-12-27T04:59:10.875Z,13.12
2022-12-27T05:01:57.140Z,12.90
2022-12-27T05:04:24.385Z,12.67
2022-12-27T05:06:51.867Z,12.30
2022-12-27T05:09:37.742Z,12.09
2022-12-27T05:12:23.963Z,11.99
2022-12-27T05:14:51.133Z,12.05
2022-12-27T05:17:18.615Z,11.81
2022-12-27T05:19:45.753Z,11.77
2022-12-27T05:22:31.861Z,11.61
2022-12-27T05:25:18.143Z,11.34
2022-12-27T05:27:45.596Z,11.32
2022-12-27T05:30:13.054Z,10.58
2022-12-27T05:32:40.231Z,11.10
2022-12-27T05:35:07.659Z,11.26
2022-12-27T05:37:35.168Z,11.04
2022-12-27T05:40:02.492Z,11.23
2022-12-27T05:42:29.791Z,10.92
2022-12-27T05:44:57.221Z,11.01
2022-12-27T05:47:24.844Z,11.09
2022-12-27T05:49:52.258Z,10.89
2022-12-27T05:52:19.920Z,10.78
2022-12-27T05:54:47.116Z,11.07
2022-12-27T05:57:14.319Z,11.15
2022-12-27T05:59:41.817Z,11.36
2022-12-27T06:02:09.033Z,11.29
2022-12-27T06:04:36.636Z,11.35
2022-12-27T06:07:03.859Z,11.29
2022-12-27T06:09:31.081Z,11.41
2022-12-27T06:11:58.546Z,11.34
2022-12-27T06:14:25.798Z,11.27
2022-12-27T06:16:53.069Z,11.56
2022-12-27T06:19:20.566Z,11.16
2022-12-27T06:21:47.748Z,11.52
2022-12-27T06:24:15.457Z,11.54
2022-12-27T06:26:42.904Z,11.43
2022-12-27T06:29:11.586Z,10.86
2022-12-27T06:31:38.876Z,10.87
2022-12-27T06:34:06.344Z,10.48
2022-12-27T06:36:33.486Z,10.85
2022-12-27T06:39:00.899Z,10.85
2022-12-27T06:41:28.754Z,10.65
2022-12-27T06:43:57.100Z,10.80
2022-12-27T06:46:24.611Z,11.09
2022-12-27T06:48:52.224Z,10.59
2022-12-27T06:51:20.177Z,10.55
2022-12-27T06:53:47.635Z,10.87
2022-12-27T06:56:18.899Z,11.41
2022-12-27T06:58:46.597Z,11.86
2022-12-27T07:01:13.850Z,12.99
2022-12-27T07:03:41.596Z,12.91
2022-12-27T07:06:09.445Z,12.59
2022-12-27T07:08:36.619Z,13.58
2022-12-27T07:11:05.652Z,14.17
2022-12-27T07:13:43.768Z,14.75
2022-12-27T07:16:13.251Z,14.94
2022-12-27T07:18:40.612Z,13.94
2022-12-27T07:21:08.543Z,14.21
2022-12-27T07:23:36.039Z,15.30
2022-12-27T07:26:03.755Z,15.99
2022-12-27T07:28:31.307Z,15.29
2022-12-27T07:30:58.870Z,15.77
2022-12-27T07:33:26.066Z,15.77
2022-12-27T07:35:59.881Z,16.79
2022-12-27T07:38:27.514Z,17.35
2022-12-27T07:40:55.136Z,18.05
2022-12-27T07:43:22.300Z,17.99
2022-12-27T07:45:49.851Z,17.82
2022-12-27T07:48:17.095Z,18.69
2022-12-27T07:50:44.280Z,18.63
2022-12-27T07:53:11.993Z,18.24
2022-12-27T07:55:39.211Z,16.83
2022-12-27T07:58:06.495Z,17.35
2022-12-27T08:00:34.006Z,16.88
2022-12-27T08:03:01.571Z,16.29
2022-12-27T08:05:28.839Z,16.40
2022-12-27T08:07:57.349Z,16.40
2022-12-27T08:10:24.832Z,16.09
2022-12-27T08:12:52.011Z,16.39
2022-12-27T08:15:19.283Z,14.61
2022-12-27T08:17:46.914Z,15.03
2022-12-27T08:20:14.647Z,14.89
2022-12-27T08:22:41.830Z,14.58
2022-12-27T08:25:09.502Z,16.05
2022-12-27T08:27:36.694Z,16.45
2022-12-27T08:30:03.991Z,16.57
2022-12-27T08:32:31.490Z,16.50
2022-12-27T08:35:11.976Z,15.72
2022-12-27T08:37:46.123Z,16.65
2022-12-27T08:40:13.352Z,16.29
2022-12-27T08:42:40.636Z,16.27
2022-12-27T08:45:08.276Z,16.10
2022-12-27T08:47:35.480Z,15.66
2022-12-27T08:50:02.757Z,15.80
2022-12-27T08:52:30.173Z,16.24
2022-12-27T08:54:57.359Z,14.52
2022-12-27T08:57:24.565Z,13.78
2022-12-27T08:59:52.011Z,13.56
2022-12-27T09:02:19.311Z,13.43
2022-12-27T09:04:47.089Z,14.41
2022-12-27T09:07:14.596Z,14.27
2022-12-27T09:09:42.257Z,14.18
2022-12-27T09:12:09.594Z,16.34
2022-12-27T09:14:37.084Z,15.21
2022-12-27T09:17:06.251Z,14.16
2022-12-27T09:19:33.385Z,14.05
2022-12-27T09:22:00.815Z,14.36
2022-12-27T09:24:27.979Z,15.82
2022-12-27T09:26:55.122Z,15.91
2022-12-27T09:29:22.790Z,16.80
2022-12-27T09:31:49.937Z,15.56
2022-12-27T09:34:17.149Z,14.74
2022-12-27T09:36:44.629Z,14.53
2022-12-27T09:39:13.777Z,13.95
2022-12-27T09:44:37.213Z,13.75
2022-12-27T09:47:22.805Z,13.69
2022-12-27T09:50:02.566Z,14.62
2022-12-27T09:52:32.989Z,14.46
2022-12-27T09:55:04.633Z,13.74
2022-12-27T09:57:41.502Z,13.63
2022-12-27T10:00:34.709Z,14.97
2022-12-27T10:03:04.497Z,14.84
2022-12-27T10:05:33.115Z,14.28
2022-12-27T10:08:00.225Z,14.03
2022-12-27T10:10:46.467Z,13.54
2022-12-27T10:13:19.915Z,13.30
2022-12-27T10:15:50.217Z,13.31
2022-12-27T10:18:25.414Z,13.81
2022-12-27T10:21:05.405Z,13.54
2022-12-27T10:23:32.904Z,14.07
2022-12-27T10:26:01.725Z,15.84
2022-12-27T10:28:40.612Z,16.32
2022-12-27T10:31:15.081Z,16.35
2022-12-27T10:33:43.980Z,16.91
2022-12-27T10:36:15.747Z,16.47
2022-12-27T10:38:42.949Z,17.04
2022-12-27T10:41:25.406Z,17.36
2022-12-27T10:43:53.438Z,16.51
2022-12-27T10:46:32.130Z,15.11
2022-12-27T10:49:22.373Z,15.27
2022-12-27T10:51:50.258Z,14.93
2022-12-27T10:54:21.480Z,15.78
2022-12-27T10:56:48.719Z,15.41
2022-12-27T10:59:23.801Z,15.58
2022-12-27T11:02:00.780Z,17.37
2022-12-27T11:04:29.104Z,17.89
2022-12-27T11:06:59.933Z,18.41
2022-12-27T11:09:27.195Z,17.10
2022-12-27T11:12:12.262Z,16.70
2022-12-27T11:14:40.737Z,17.03
2022-12-27T11:17:09.259Z,15.70
2022-12-27T11:19:36.454Z,17.52
2022-12-27T11:22:06.662Z,17.31
2022-12-27T11:24:33.887Z,18.81
2022-12-27T11:27:01.391Z,18.73
2022-12-27T11:29:29.120Z,17.39
2022-12-27T11:31:56.353Z,17.03
2022-12-27T11:34:33.368Z,15.98
2022-12-27T11:37:10.845Z,14.97
2022-12-27T11:39:38.016Z,14.46
2022-12-27T11:42:10.220Z,14.30
2022-12-27T11:44:38.187Z,13.20
2022-12-27T11:47:05.692Z,12.27
2022-12-27T11:49:38.240Z,12.82
2022-12-27T11:52:05.651Z,12.53
2022-12-27T11:54:47.961Z,11.65
2022-12-27T11:57:34.133Z,11.59
2022-12-27T12:00:16.027Z,11.03
2022-12-27T12:02:43.540Z,11.10
2022-12-27T12:05:25.993Z,11.34
2022-12-27T12:08:12.161Z,11.13
2022-12-27T12:10:58.083Z,11.13
2022-12-27T12:13:37.475Z,10.24
2022-12-27T12:16:23.711Z,10.57
2022-12-27T12:19:09.956Z,10.83
2022-12-27T12:21:40.592Z,10.11
2022-12-27T12:24:08.011Z,9.87
2022-12-27T12:26:44.774Z,9.93
2022-12-27T12:29:31.286Z,10.00
2022-12-27T12:32:01.535Z,10.23
2022-12-27T12:34:37.858Z,10.10
2022-12-27T12:37:23.527Z,9.81
2022-12-27T12:39:53.933Z,9.27
2022-12-27T12:42:37.266Z,9.36
2022-12-27T12:45:20.052Z,9.31
2022-12-27T12:47:51.956Z,9.56
2022-12-27T12:50:25.527Z,9.53
2022-12-27T12:52:56.668Z,9.37
2022-12-27T12:55:38.124Z,8.77
2022-12-27T12:58:28.772Z,8.84
2022-12-27T13:01:16.474Z,8.81
2022-12-27T13:04:04.041Z,9.24
2022-12-27T13:06:44.193Z,9.32
2022-12-27T13:09:17.960Z,9.03
2022-12-27T13:12:05.368Z,9.16
2022-12-27T13:14:44.727Z,9.37
2022-12-27T13:17:30.690Z,9.03
2022-12-27T13:20:17.902Z,8.50
2022-12-27T13:23:04.276Z,9.04
2022-12-27T13:25:51.752Z,9.04
2022-12-27T13:28:24.777Z,8.81
2022-12-27T13:31:10.989Z,9.14
2022-12-27T13:34:01.499Z,8.87
2022-12-27T13:36:34.695Z,8.79
2022-12-27T13:39:08.695Z,8.88
2022-12-27T13:41:48.053Z,9.27
2022-12-27T13:44:28.248Z,8.90
2022-12-27T13:46:55.494Z,8.67
2022-12-27T13:49:41.993Z,8.61
2022-12-27T13:52:12.173Z,8.69
2022-12-27T13:54:42.149Z,8.69
2022-12-27T13:57:30.631Z,8.25
2022-12-27T14:00:01.227Z,8.63
2022-12-27T14:02:31.786Z,8.92
2022-12-27T14:05:02.491Z,8.75
2022-12-27T14:07:32.689Z,9.07
2022-12-27T14:10:06.397Z,8.98
2022-12-27T14:12:36.741Z,9.35
2022-12-27T14:15:05.052Z,9.07
2022-12-27T14:17:34.881Z,9.13
2022-12-27T14:20:04.548Z,8.33
2022-12-27T14:22:54.155Z,8.98
2022-12-27T14:25:27.593Z,8.49
2022-12-27T14:28:13.725Z,9.50
2022-12-27T14:30:41.056Z,9.62
2022-12-27T14:33:27.207Z,9.47
2022-12-27T14:36:13.853Z,9.31
2022-12-27T14:39:00.169Z,9.69
2022-12-27T14:41:42.780Z,9.87
2022-12-27T14:44:16.649Z,9.33
2022-12-27T14:46:43.973Z,9.43
2022-12-27T14:49:30.248Z,9.38
2022-12-27T14:52:08.762Z,9.84
2022-12-27T14:54:51.841Z,10.24
2022-12-27T14:57:33.498Z,9.89
2022-12-27T15:00:01.724Z,10.18
2022-12-27T15:02:41.589Z,9.49
2022-12-27T15:05:28.338Z,9.24
2022-12-27T15:08:01.624Z,9.59
2022-12-27T15:10:47.554Z,10.58
2022-12-27T15:13:21.045Z,10.78
2022-12-27T15:15:48.498Z,10.29
2022-12-27T15:18:34.458Z,10.69
2022-12-27T15:21:05.156Z,10.30
2022-12-27T15:24:01.814Z,9.69
2022-12-27T15:26:33.636Z,10.43
2022-12-27T15:29:04.304Z,10.31
2022-12-27T15:31:42.637Z,10.74
2022-12-27T15:34:16.199Z,10.62
2022-12-27T15:36:44.822Z,10.96
2022-12-27T15:39:31.731Z,11.17
2022-12-27T15:42:14.640Z,10.90
2022-12-27T15:44:44.849Z,11.01
2022-12-27T15:47:20.232Z,11.27
2022-12-27T15:49:53.410Z,10.78
2022-12-27T15:52:23.701Z,9.90
2022-12-27T15:55:00.198Z,10.18
2022-12-27T15:57:27.620Z,10.01
2022-12-27T16:00:13.446Z,10.72
2022-12-27T16:02:44.022Z,10.76
2022-12-27T16:05:13.078Z,10.63
2022-12-27T16:07:43.802Z,10.48
2022-12-27T16:10:29.675Z,10.65
2022-12-27T16:13:00.072Z,10.81
2022-12-27T16:15:50.996Z,10.84
2022-12-27T16:18:21.395Z,10.68
2022-12-27T16:20:55.155Z,10.25
2022-12-27T16:23:23.582Z,10.02
2022-12-27T16:25:59.854Z,10.45
2022-12-27T16:28:28.169Z,9.69
2022-12-27T16:30:55.972Z,9.40
2022-12-27T16:33:23.206Z,10.11
2022-12-27T16:36:09.481Z,9.75
2022-12-27T16:39:00.487Z,9.99
2022-12-27T16:41:27.884Z,10.34
2022-12-27T16:44:00.930Z,10.54
2022-12-27T16:46:47.176Z,10.54
2022-12-27T16:49:24.128Z,9.92
2022-12-27T16:52:03.903Z,10.18
2022-12-27T16:54:36.351Z,10.11
2022-12-27T16:57:21.603Z,10.20
2022-12-27T17:00:07.842Z,10.16
2022-12-27T17:02:38.858Z,10.12
2022-12-27T17:05:15.205Z,9.83
2022-12-27T17:07:42.664Z,9.92
2022-12-27T17:10:24.973Z,10.04
2022-12-27T17:12:53.478Z,10.01
2022-12-27T17:15:20.773Z,10.36
2022-12-27T17:17:47.971Z,10.04
2022-12-27T17:20:17.085Z,9.77
2022-12-27T17:22:44.346Z,10.15
2022-12-27T17:25:15.257Z,10.45
2022-12-27T17:27:51.738Z,10.49
2022-12-27T17:30:20.027Z,10.63
2022-12-27T17:33:02.894Z,10.31
2022-12-27T17:35:49.206Z,9.96
2022-12-27T17:38:22.603Z,10.28
2022-12-27T17:40:49.775Z,9.84
2022-12-27T17:43:41.771Z,10.23
2022-12-27T17:46:15.277Z,10.23
2022-12-27T17:48:42.780Z,10.47
2022-12-27T17:51:15.114Z,10.47
2022-12-27T17:54:08.110Z,10.60
2022-12-27T17:57:05.168Z,10.68
2022-12-27T17:59:34.813Z,10.75
2022-12-27T18:02:06.865Z,10.15
2022-12-27T18:04:35.089Z,10.53
2022-12-27T18:07:03.383Z,10.44
2022-12-27T18:09:36.649Z,10.58
2022-12-27T18:12:04.653Z,10.61
2022-12-27T18:14:32.172Z,10.53
2022-12-27T18:16:59.530Z,10.59
2022-12-27T18:19:30.943Z,9.63
2022-12-27T18:21:59.347Z,9.83
2022-12-27T18:24:28.203Z,10.32
2022-12-27T18:27:02.908Z,10.44
2022-12-27T18:29:30.385Z,10.45
2022-12-27T18:31:59.086Z,10.49
2022-12-27T18:34:27.724Z,10.47
2022-12-27T18:36:58.078Z,10.58
2022-12-27T18:39:52.507Z,10.26
2022-12-27T18:42:24.746Z,9.92
2022-12-27T18:44:54.560Z,10.33
2022-12-27T18:47:23.157Z,9.80
2022-12-27T18:49:54.589Z,10.00
2022-12-27T18:52:38.550Z,9.77
2022-12-27T18:55:10.831Z,9.82
2022-12-27T18:57:38.489Z,9.45
2022-12-27T19:00:15.111Z,9.79
2022-12-27T19:02:43.230Z,9.84
2022-12-27T19:05:15.115Z,9.92
2022-12-27T19:07:42.611Z,9.95
2022-12-27T19:10:15.216Z,9.98
2022-12-27T19:12:42.780Z,9.96
2022-12-27T19:15:29.685Z,9.94
2022-12-27T19:18:00.857Z,10.01
2022-12-27T19:20:29.212Z,10.06
2022-12-27T19:22:57.358Z,9.51
2022-12-27T19:25:28.812Z,9.16
2022-12-27T19:28:06.623Z,9.06
2022-12-27T19:30:37.276Z,8.90
2022-12-27T19:33:06.533Z,9.20
2022-12-27T19:35:33.982Z,9.52
2022-12-27T19:38:01.623Z,9.51
2022-12-27T19:40:29.088Z,9.36
2022-12-27T19:42:56.503Z,9.07
2022-12-27T19:45:24.307Z,9.45
2022-12-27T19:47:52.513Z,9.07
2022-12-27T19:50:20.353Z,8.29
2022-12-27T19:52:50.523Z,8.82
2022-12-27T19:55:19.205Z,9.30
2022-12-27T19:57:46.999Z,9.60
2022-12-27T20:00:17.661Z,9.73
2022-12-27T20:02:45.553Z,9.53
2022-12-27T20:05:12.878Z,9.74
2022-12-27T20:07:40.209Z,9.75
2022-12-27T20:10:09.743Z,9.84
2022-12-27T20:12:37.257Z,9.91
2022-12-27T20:15:05.027Z,9.93
2022-12-27T20:17:32.780Z,9.79
2022-12-27T20:20:00.085Z,9.71
2022-12-27T20:22:27.419Z,9.46
2022-12-27T20:24:54.849Z,9.45
2022-12-27T20:27:23.980Z,9.60
2022-12-27T20:29:51.309Z,9.66
2022-12-27T20:32:19.388Z,9.73
2022-12-27T20:34:46.819Z,9.75
2022-12-27T20:37:19.684Z,9.86
2022-12-27T20:39:50.213Z,9.90
2022-12-27T20:42:17.427Z,9.80
2022-12-27T20:44:44.604Z,9.90
2022-12-27T20:47:12.245Z,9.74
2022-12-27T20:49:39.561Z,9.55
2022-12-27T20:52:06.834Z,9.02
2022-12-27T20:54:34.497Z,9.64
2022-12-27T20:57:01.678Z,9.83
2022-12-27T20:59:28.860Z,9.79
2022-12-27T21:01:57.420Z,10.01
2022-12-27T21:04:26.607Z,9.87
2022-12-27T21:06:53.936Z,9.79
2022-12-27T21:09:21.644Z,9.68
2022-12-27T21:11:50.608Z,9.79
2022-12-27T21:14:17.943Z,9.57
2022-12-27T21:16:46.019Z,9.69
2022-12-27T21:19:13.352Z,9.80
2022-12-27T21:21:40.726Z,9.89
2022-12-27T21:24:08.647Z,9.86
2022-12-27T21:26:36.453Z,9.72
2022-12-27T21:29:04.979Z,9.80
2022-12-27T21:31:32.790Z,9.78
2022-12-27T21:34:00.124Z,9.76
2022-12-27T21:36:28.592Z,9.70
2022-12-27T21:38:56.140Z,9.77
2022-12-27T21:41:24.396Z,9.53
2022-12-27T21:43:52.151Z,9.70
2022-12-27T21:46:24.132Z,9.69
2022-12-27T21:48:58.491Z,9.71
2022-12-27T21:51:26.233Z,9.60
2022-12-27T21:53:53.427Z,9.61
2022-12-27T21:56:20.668Z,9.61
2022-12-27T21:58:48.370Z,9.54
2022-12-27T22:01:20.164Z,9.39
2022-12-27T22:03:48.612Z,9.42
2022-12-27T22:06:20.495Z,9.06
2022-12-27T22:08:49.010Z,9.23
2022-12-27T22:11:16.860Z,8.99
2022-12-27T22:13:44.169Z,8.86
2022-12-27T22:16:12.497Z,9.14
2022-12-27T22:18:43.047Z,9.16
2022-12-27T22:21:11.265Z,9.14
2022-12-27T22:23:39.933Z,9.17
2022-12-27T22:26:13.978Z,9.21
2022-12-27T22:28:41.606Z,8.94
2022-12-27T22:31:09.688Z,8.30
2022-12-27T22:33:37.078Z,8.50
2022-12-27T22:36:05.164Z,8.61
2022-12-27T22:38:32.742Z,8.65
2022-12-27T22:41:05.974Z,8.84
2022-12-27T22:43:33.755Z,8.57
2022-12-27T22:46:00.975Z,8.06
2022-12-27T22:48:28.201Z,8.31
2022-12-27T22:50:55.676Z,8.36
2022-12-27T22:53:23.694Z,8.01
2022-12-27T22:55:50.847Z,8.17
2022-12-27T22:58:18.394Z,8.66
2022-12-27T23:00:45.773Z,8.27
2022-12-27T23:03:12.975Z,8.34
2022-12-27T23:05:40.484Z,8.06
2022-12-27T23:08:07.682Z,7.97
2022-12-27T23:10:35.094Z,8.01
2022-12-27T23:13:02.597Z,8.06
2022-12-27T23:15:29.885Z,8.06
2022-12-27T23:17:57.100Z,8.14
2022-12-27T23:20:24.569Z,8.04
2022-12-27T23:22:51.798Z,8.15
2022-12-27T23:25:18.981Z,8.30
2022-12-27T23:27:46.576Z,8.11
2022-12-27T23:30:14.081Z,8.17
2022-12-27T23:32:41.327Z,7.87
2022-12-27T23:35:09.189Z,8.39
2022-12-27T23:37:36.392Z,8.19
2022-12-27T23:40:03.706Z,8.07
2022-12-27T23:42:31.239Z,8.09
2022-12-27T23:44:58.435Z,7.18
2022-12-27T23:47:25.620Z,7.15
2022-12-27T23:49:53.126Z,7.36
2022-12-27T23:52:20.310Z,7.98
2022-12-27T23:54:47.540Z,7.96
2022-12-27T23:57:20.475Z,7.83
2022-12-27T23:59:50.213Z,8.06
